createdAt,value
2023-04-30T00:00:09.821Z,67.44
2023-04-30T00:02:39.728Z,67.55
2023-04-30T00:05:07.698Z,68.19
2023-04-30T00:07:35.182Z,67.40
2023-04-30T00:10:02.844Z,67.57
2023-04-30T00:12:30.086Z,68.17
2023-04-30T00:14:57.280Z,67.73
2023-04-30T00:17:24.470Z,67.34
2023-04-30T00:19:52.177Z,67.42
2023-04-30T00:22:19.530Z,67.19
2023-04-30T00:24:46.657Z,66.81
2023-04-30T00:27:13.737Z,66.80
2023-04-30T00:29:41.625Z,67.46
2023-04-30T00:32:09.191Z,67.36
2023-04-30T00:34:36.440Z,67.32
2023-04-30T00:37:03.882Z,67.10
2023-04-30T00:39:30.873Z,67.42
2023-04-30T00:41:58.055Z,66.77
2023-04-30T00:44:25.134Z,67.45
2023-04-30T00:46:52.325Z,67.15
2023-04-30T00:49:19.393Z,66.81
2023-04-30T00:51:46.910Z,66.50
2023-04-30T00:54:14.843Z,67.79
2023-04-30T00:56:42.150Z,67.70
2023-04-30T00:59:09.454Z,67.65
2023-04-30T01:01:37.556Z,66.93
2023-04-30T01:04:05.435Z,66.86
2023-04-30T01:06:33.292Z,66.94
2023-04-30T01:09:00.563Z,67.69
2023-04-30T01:11:59.893Z,68.07
2023-04-30T01:14:56.207Z,68.15
2023-04-30T01:17:32.353Z,68.23
2023-04-30T01:20:00.438Z,68.21
2023-04-30T01:22:27.661Z,67.91
2023-04-30T01:25:19.890Z,68.20
2023-04-30T01:28:03.755Z,67.81
2023-04-30T01:30:32.750Z,67.90
2023-04-30T01:32:59.854Z,68.81
2023-04-30T01:35:44.799Z,69.12
2023-04-30T01:38:26.457Z,69.62
2023-04-30T01:41:32.134Z,69.38
2023-04-30T01:44:17.937Z,69.36
2023-04-30T01:46:56.492Z,69.46
2023-04-30T01:49:30.634Z,70.06
2023-04-30T01:52:12.197Z,70.10
2023-04-30T01:54:56.685Z,69.90
2023-04-30T01:57:38.736Z,70.26
2023-04-30T02:00:10.616Z,70.56
2023-04-30T02:02:40.516Z,70.22
2023-04-30T02:05:07.996Z,70.72
2023-04-30T02:07:44.875Z,71.07
2023-04-30T02:10:16.637Z,70.93
2023-04-30T02:12:43.628Z,71.23
2023-04-30T02:15:11.153Z,71.03
2023-04-30T02:17:40.870Z,70.90
2023-04-30T02:20:09.181Z,71.04
2023-04-30T02:22:37.475Z,71.16
2023-04-30T02:25:05.029Z,71.47
2023-04-30T02:27:33.262Z,71.41
2023-04-30T02:30:00.981Z,71.21
2023-04-30T02:32:28.047Z,70.81
2023-04-30T02:34:55.243Z,69.89
2023-04-30T02:37:22.866Z,70.18
2023-04-30T02:39:52.646Z,70.62
2023-04-30T02:42:19.994Z,70.59
2023-04-30T02:44:47.047Z,70.52
2023-04-30T02:47:14.174Z,69.58
2023-04-30T02:49:41.442Z,68.79
2023-04-30T02:52:10.135Z,68.46
2023-04-30T02:54:43.260Z,68.05
2023-04-30T02:57:10.937Z,68.36
2023-04-30T02:59:39.085Z,67.67
2023-04-30T03:02:06.252Z,67.96
2023-04-30T03:04:33.323Z,68.01
2023-04-30T03:07:00.647Z,67.98
2023-04-30T03:09:27.834Z,68.04
2023-04-30T03:11:54.771Z,68.65
2023-04-30T03:14:21.741Z,68.93
2023-04-30T03:16:49.433Z,67.82
2023-04-30T03:19:16.825Z,68.09
2023-04-30T03:21:43.896Z,67.58
2023-04-30T03:24:10.997Z,68.37
2023-04-30T03:26:38.272Z,67.62
2023-04-30T03:29:08.048Z,66.82
2023-04-30T03:31:35.157Z,66.83
2023-04-30T03:34:02.283Z,66.63
2023-04-30T03:36:29.208Z,66.80
2023-04-30T03:38:56.286Z,67.02
2023-04-30T03:41:24.461Z,66.78
2023-04-30T03:43:51.507Z,67.18
2023-04-30T03:46:18.923Z,66.87
2023-04-30T03:48:46.424Z,67.17
2023-04-30T03:51:13.468Z,68.12
2023-04-30T03:53:40.829Z,68.60
2023-04-30T03:56:08.284Z,69.59
2023-04-30T03:58:35.308Z,69.92
2023-04-30T04:01:02.347Z,69.26
2023-04-30T04:03:29.588Z,68.93
2023-04-30T04:05:56.793Z,69.28
2023-04-30T04:08:24.257Z,69.43
2023-04-30T04:10:51.418Z,69.16
2023-04-30T04:13:19.029Z,69.49
2023-04-30T04:15:46.166Z,69.15
2023-04-30T04:18:13.233Z,69.33
2023-04-30T04:20:40.572Z,69.74
2023-04-30T04:23:07.593Z,69.72
2023-04-30T04:25:35.464Z,70.16
2023-04-30T04:28:02.589Z,70.96
2023-04-30T04:30:29.788Z,70.93
2023-04-30T04:32:57.796Z,72.57
2023-04-30T04:35:24.866Z,73.44
2023-04-30T04:37:51.899Z,74.27
2023-04-30T04:40:19.022Z,73.74
2023-04-30T04:42:45.957Z,73.37
2023-04-30T04:45:13.155Z,74.61
2023-04-30T04:47:40.372Z,75.10
2023-04-30T04:50:08.040Z,74.71
2023-04-30T04:52:35.360Z,75.13
2023-04-30T04:55:05.055Z,75.27
2023-04-30T04:57:33.344Z,75.72
2023-04-30T05:00:06.694Z,75.53
2023-04-30T05:02:33.808Z,74.58
2023-04-30T05:05:01.883Z,76.48
2023-04-30T05:07:30.086Z,78.06
2023-04-30T05:09:57.342Z,75.99
2023-04-30T05:12:24.710Z,75.49
2023-04-30T05:14:51.777Z,73.22
2023-04-30T05:17:18.821Z,75.24
2023-04-30T05:19:47.716Z,74.58
2023-04-30T05:22:14.776Z,73.81
2023-04-30T05:24:41.937Z,76.86
2023-04-30T05:27:09.347Z,78.93
2023-04-30T05:29:36.468Z,78.10
2023-04-30T05:32:03.666Z,77.11
2023-04-30T05:34:30.908Z,77.21
2023-04-30T05:36:57.869Z,77.03
2023-04-30T05:39:24.921Z,76.38
2023-04-30T05:41:53.372Z,72.76
2023-04-30T05:44:20.622Z,72.18
2023-04-30T05:46:47.588Z,73.85
2023-04-30T05:49:14.729Z,73.14
2023-04-30T05:51:41.888Z,72.72
2023-04-30T05:54:08.967Z,66.30
2023-04-30T05:56:36.102Z,68.50
2023-04-30T05:59:03.217Z,69.25
2023-04-30T06:01:30.315Z,65.54
2023-04-30T06:03:58.730Z,69.67
2023-04-30T06:06:25.963Z,70.73
2023-04-30T06:08:53.575Z,67.94
2023-04-30T06:11:21.243Z,70.84
2023-04-30T06:13:49.808Z,69.11
2023-04-30T06:16:19.692Z,66.33
2023-04-30T06:18:46.677Z,70.05
2023-04-30T06:21:13.612Z,69.94
2023-04-30T06:23:40.649Z,65.37
2023-04-30T06:26:09.864Z,67.26
2023-04-30T06:28:36.967Z,71.34
2023-04-30T06:31:04.204Z,70.93
2023-04-30T06:33:31.452Z,70.36
2023-04-30T06:35:58.478Z,71.65
2023-04-30T06:38:25.780Z,73.28
2023-04-30T06:40:53.032Z,68.75
2023-04-30T06:43:20.058Z,71.75
2023-04-30T06:45:47.164Z,68.96
2023-04-30T06:48:14.473Z,70.21
2023-04-30T06:50:45.251Z,71.79
2023-04-30T06:53:12.919Z,70.33
2023-04-30T06:55:41.211Z,64.95
2023-04-30T06:58:08.421Z,68.08
2023-04-30T07:00:35.559Z,66.37
2023-04-30T07:03:02.867Z,65.53
2023-04-30T07:05:33.395Z,66.56
2023-04-30T07:08:03.573Z,66.94
2023-04-30T07:10:31.746Z,66.68
2023-04-30T07:12:59.466Z,67.14
2023-04-30T07:15:26.544Z,63.53
2023-04-30T07:17:53.747Z,60.59
2023-04-30T07:20:21.018Z,62.44
2023-04-30T07:22:48.034Z,61.78
2023-04-30T07:25:15.345Z,62.09
2023-04-30T07:27:42.451Z,63.64
2023-04-30T07:30:10.802Z,62.98
2023-04-30T07:32:40.021Z,63.31
2023-04-30T07:35:07.635Z,62.45
2023-04-30T07:37:35.943Z,61.17
2023-04-30T07:40:04.498Z,61.86
2023-04-30T07:42:31.619Z,62.63
2023-04-30T07:44:58.762Z,62.96
2023-04-30T07:47:26.054Z,63.33
2023-04-30T07:49:53.526Z,62.12
2023-04-30T07:52:20.782Z,60.13
2023-04-30T07:54:48.152Z,62.55
2023-04-30T07:57:15.192Z,64.07
2023-04-30T07:59:42.217Z,60.92
2023-04-30T08:02:09.881Z,63.55
2023-04-30T08:04:36.911Z,64.29
2023-04-30T08:07:04.847Z,61.58
2023-04-30T08:09:32.329Z,61.34
2023-04-30T08:11:59.418Z,62.82
2023-04-30T08:14:26.451Z,62.50
2023-04-30T08:16:53.649Z,63.10
2023-04-30T08:19:20.734Z,61.34
2023-04-30T08:21:47.850Z,62.93
2023-04-30T08:24:14.783Z,61.40
2023-04-30T08:26:41.981Z,59.03
2023-04-30T08:29:09.081Z,58.71
2023-04-30T08:31:36.762Z,58.70
2023-04-30T08:34:03.788Z,63.42
2023-04-30T08:36:31.047Z,58.27
2023-04-30T08:38:57.972Z,60.72
2023-04-30T08:41:27.228Z,60.08
2023-04-30T08:43:54.179Z,58.38
2023-04-30T08:46:23.502Z,59.31
2023-04-30T08:48:50.911Z,59.15
2023-04-30T08:51:18.074Z,58.83
2023-04-30T08:53:46.445Z,58.80
2023-04-30T08:56:13.460Z,56.59
2023-04-30T08:58:41.312Z,56.00
2023-04-30T09:01:10.355Z,54.55
2023-04-30T09:03:38.229Z,52.52
2023-04-30T09:06:05.337Z,55.23
2023-04-30T09:08:51.446Z,55.01
2023-04-30T09:11:22.822Z,55.44
2023-04-30T09:13:54.772Z,49.33
2023-04-30T09:16:23.020Z,51.61
2023-04-30T09:18:51.065Z,51.01
2023-04-30T09:21:32.050Z,51.43
2023-04-30T09:24:01.842Z,52.05
2023-04-30T09:26:39.272Z,52.33
2023-04-30T09:29:10.479Z,55.29
2023-04-30T09:31:39.009Z,55.80
2023-04-30T09:34:06.493Z,54.68
2023-04-30T09:36:34.736Z,54.31
2023-04-30T09:39:11.475Z,55.50
2023-04-30T09:41:39.885Z,55.84
2023-04-30T09:44:06.855Z,56.42
2023-04-30T09:46:37.458Z,58.01
2023-04-30T09:49:07.371Z,58.83
2023-04-30T09:51:35.867Z,57.51
2023-04-30T09:54:04.749Z,57.86
2023-04-30T09:56:39.598Z,55.79
2023-04-30T09:59:09.265Z,58.89
2023-04-30T10:01:40.349Z,59.23
2023-04-30T10:04:08.912Z,62.33
2023-04-30T10:06:36.529Z,53.83
2023-04-30T10:09:06.786Z,63.44
2023-04-30T10:11:37.873Z,54.62
2023-04-30T10:14:11.938Z,50.31
2023-04-30T10:17:13.641Z,55.74
2023-04-30T10:19:47.828Z,56.50
2023-04-30T10:22:15.023Z,54.65
2023-04-30T10:24:43.746Z,55.48
2023-04-30T10:27:10.834Z,56.40
2023-04-30T10:29:38.215Z,55.66
2023-04-30T10:32:06.410Z,56.74
2023-04-30T10:34:42.839Z,56.38
2023-04-30T10:37:18.752Z,57.00
2023-04-30T10:39:47.221Z,58.64
2023-04-30T10:42:14.332Z,55.23
2023-04-30T10:44:41.291Z,53.51
2023-04-30T10:47:08.705Z,54.47
2023-04-30T10:49:36.264Z,56.28
2023-04-30T10:52:05.267Z,59.45
2023-04-30T10:54:35.238Z,57.74
2023-04-30T10:57:14.433Z,59.35
2023-04-30T10:59:53.363Z,56.06
2023-04-30T11:02:21.570Z,60.42
2023-04-30T11:05:10.371Z,59.44
2023-04-30T11:07:37.805Z,54.59
2023-04-30T11:10:08.992Z,53.15
2023-04-30T11:12:41.225Z,57.53
2023-04-30T11:15:14.133Z,53.85
2023-04-30T11:17:43.283Z,58.18
2023-04-30T11:20:13.219Z,54.18
2023-04-30T11:22:40.310Z,54.78
2023-04-30T11:25:09.902Z,53.98
2023-04-30T11:27:38.730Z,54.59
2023-04-30T11:30:12.772Z,56.52
2023-04-30T11:32:40.479Z,49.92
2023-04-30T11:35:08.193Z,52.41
2023-04-30T11:37:37.874Z,53.80
2023-04-30T11:40:11.199Z,49.14
2023-04-30T11:42:39.689Z,49.99
2023-04-30T11:45:07.786Z,51.48
2023-04-30T11:47:45.890Z,49.87
2023-04-30T11:50:29.805Z,46.78
2023-04-30T11:52:58.199Z,47.32
2023-04-30T11:55:26.764Z,46.38
2023-04-30T11:57:56.237Z,45.78
2023-04-30T12:00:28.328Z,50.96
2023-04-30T12:02:56.817Z,49.20
2023-04-30T12:05:26.935Z,46.79
2023-04-30T12:08:06.645Z,48.04
2023-04-30T12:10:34.383Z,49.30
2023-04-30T12:13:01.712Z,46.93
2023-04-30T12:15:29.305Z,49.12
2023-04-30T12:17:58.365Z,45.41
2023-04-30T12:20:28.435Z,45.94
2023-04-30T12:22:56.228Z,45.45
2023-04-30T12:25:23.787Z,46.07
2023-04-30T12:27:52.966Z,41.13
2023-04-30T12:30:21.713Z,40.75
2023-04-30T12:32:53.734Z,44.72
2023-04-30T12:35:25.080Z,45.43
2023-04-30T12:38:01.528Z,47.56
2023-04-30T12:40:28.661Z,45.31
2023-04-30T12:43:02.741Z,42.52
2023-04-30T12:45:48.288Z,43.75
2023-04-30T12:48:16.485Z,43.30
2023-04-30T12:50:48.179Z,43.28
2023-04-30T12:53:15.487Z,42.93
2023-04-30T12:55:42.488Z,40.26
2023-04-30T12:58:12.042Z,40.46
2023-04-30T13:00:44.984Z,45.72
2023-04-30T13:03:13.596Z,44.91
2023-04-30T13:05:42.337Z,45.11
2023-04-30T13:08:09.912Z,47.11
2023-04-30T13:10:36.880Z,47.93
2023-04-30T13:13:03.825Z,47.53
2023-04-30T13:15:31.168Z,49.98
2023-04-30T13:17:58.321Z,48.24
2023-04-30T13:20:25.588Z,41.88
2023-04-30T13:22:52.716Z,44.34
2023-04-30T13:25:20.537Z,42.39
2023-04-30T13:27:47.646Z,41.53
2023-04-30T13:30:14.836Z,44.70
2023-04-30T13:32:43.245Z,45.98
2023-04-30T13:35:11.535Z,46.27
2023-04-30T13:37:39.381Z,42.70
2023-04-30T13:40:08.232Z,45.32
2023-04-30T13:42:38.474Z,44.26
2023-04-30T13:45:09.207Z,41.20
2023-04-30T13:47:36.366Z,41.69
2023-04-30T13:50:04.494Z,41.73
2023-04-30T13:52:31.948Z,39.41
2023-04-30T13:54:59.288Z,39.23
2023-04-30T13:57:26.852Z,38.46
2023-04-30T13:59:54.756Z,41.61
2023-04-30T14:02:22.002Z,41.10
2023-04-30T14:05:02.023Z,41.02
2023-04-30T14:07:29.744Z,40.48
2023-04-30T14:09:56.811Z,42.28
2023-04-30T14:12:24.794Z,40.84
2023-04-30T14:14:51.852Z,40.68
2023-04-30T14:17:19.027Z,39.76
2023-04-30T14:19:46.309Z,43.92
2023-04-30T14:22:13.565Z,42.04
2023-04-30T14:24:40.858Z,41.03
2023-04-30T14:27:08.040Z,42.47
2023-04-30T14:29:35.178Z,44.09
2023-04-30T14:32:02.503Z,44.20
2023-04-30T14:34:29.642Z,45.64
2023-04-30T14:36:59.579Z,45.79
2023-04-30T14:39:27.060Z,45.63
2023-04-30T14:41:54.362Z,46.90
2023-04-30T14:44:24.467Z,47.43
2023-04-30T14:46:51.816Z,46.68
2023-04-30T14:49:19.227Z,48.48
2023-04-30T14:51:46.466Z,49.79
2023-04-30T14:54:13.552Z,48.60
2023-04-30T14:56:41.248Z,49.98
2023-04-30T14:59:08.277Z,49.77
2023-04-30T15:01:35.361Z,50.44
2023-04-30T15:04:02.601Z,50.28
2023-04-30T15:06:29.816Z,51.24
2023-04-30T15:08:56.925Z,51.75
2023-04-30T15:11:24.348Z,51.14
2023-04-30T15:13:51.740Z,52.29
2023-04-30T15:16:18.924Z,51.58
2023-04-30T15:18:46.157Z,52.61
2023-04-30T15:21:13.331Z,50.42
2023-04-30T15:23:40.462Z,51.87
2023-04-30T15:26:07.936Z,47.47
2023-04-30T15:28:35.146Z,46.86
2023-04-30T15:31:03.395Z,47.10
2023-04-30T15:33:31.615Z,47.88
2023-04-30T15:35:59.541Z,48.02
2023-04-30T15:38:26.640Z,48.35
2023-04-30T15:40:53.725Z,48.19
2023-04-30T15:43:21.545Z,48.23
2023-04-30T15:45:48.608Z,49.78
2023-04-30T15:48:16.040Z,49.14
2023-04-30T15:50:43.138Z,49.35
2023-04-30T15:53:10.182Z,48.92
2023-04-30T15:55:37.884Z,49.58
2023-04-30T15:58:04.956Z,47.82
2023-04-30T16:00:33.828Z,49.05
2023-04-30T16:03:01.317Z,48.24
2023-04-30T16:05:28.414Z,47.84
2023-04-30T16:07:55.916Z,48.47
2023-04-30T16:10:27.173Z,50.45
2023-04-30T16:12:54.175Z,50.67
2023-04-30T16:15:21.223Z,51.21
2023-04-30T16:17:48.348Z,50.93
2023-04-30T16:20:15.270Z,51.00
2023-04-30T16:22:42.644Z,51.13
2023-04-30T16:25:10.375Z,51.51
2023-04-30T16:27:37.679Z,51.07
2023-04-30T16:30:06.139Z,51.35
2023-04-30T16:32:33.611Z,52.21
2023-04-30T16:35:00.718Z,53.30
2023-04-30T16:37:29.526Z,51.99
2023-04-30T16:39:57.123Z,50.99
2023-04-30T16:42:24.688Z,51.85
2023-04-30T16:44:51.597Z,52.28
2023-04-30T16:47:19.534Z,52.68
2023-04-30T16:49:46.545Z,52.55
2023-04-30T16:52:13.975Z,52.76
2023-04-30T16:54:41.055Z,51.95
2023-04-30T16:57:08.176Z,52.10
2023-04-30T16:59:35.114Z,52.65
2023-04-30T17:02:02.828Z,51.85
2023-04-30T17:04:29.803Z,52.27
2023-04-30T17:06:57.732Z,52.39
2023-04-30T17:09:24.962Z,52.49
2023-04-30T17:11:51.925Z,52.44
2023-04-30T17:14:19.009Z,51.61
2023-04-30T17:16:47.093Z,51.90
2023-04-30T17:19:14.388Z,50.71
2023-04-30T17:21:41.412Z,50.93
2023-04-30T17:24:08.488Z,51.44
2023-04-30T17:26:35.684Z,51.63
2023-04-30T17:29:02.764Z,50.46
2023-04-30T17:31:31.380Z,50.74
2023-04-30T17:34:00.262Z,49.32
2023-04-30T17:36:30.404Z,49.42
2023-04-30T17:38:57.594Z,49.85
2023-04-30T17:41:24.725Z,49.91
2023-04-30T17:43:51.865Z,49.78
2023-04-30T17:46:18.905Z,50.13
2023-04-30T17:48:46.033Z,51.01
2023-04-30T17:51:13.142Z,51.30
2023-04-30T17:53:40.834Z,51.56
2023-04-30T17:56:09.029Z,51.61
2023-04-30T17:58:37.684Z,51.46
2023-04-30T18:01:06.470Z,50.97
2023-04-30T18:03:33.638Z,50.96
2023-04-30T18:06:00.751Z,50.55
2023-04-30T18:08:27.840Z,50.67
2023-04-30T18:10:55.334Z,50.90
2023-04-30T18:13:22.593Z,50.80
2023-04-30T18:15:49.562Z,50.99
2023-04-30T18:18:16.650Z,51.23
2023-04-30T18:20:43.604Z,51.69
2023-04-30T18:23:10.630Z,51.93
2023-04-30T18:25:37.957Z,51.71
2023-04-30T18:28:05.196Z,51.84
2023-04-30T18:30:32.407Z,52.12
2023-04-30T18:32:59.670Z,52.33
2023-04-30T18:35:28.294Z,52.80
2023-04-30T18:37:55.984Z,52.91
2023-04-30T18:40:23.278Z,52.99
2023-04-30T18:42:50.415Z,53.30
2023-04-30T18:45:18.339Z,53.54
2023-04-30T18:47:45.595Z,53.72
2023-04-30T18:50:17.543Z,53.79
2023-04-30T18:52:45.302Z,53.49
2023-04-30T18:55:14.009Z,53.89
2023-04-30T18:57:42.576Z,54.17
2023-04-30T19:00:12.284Z,54.48
2023-04-30T19:02:39.484Z,54.45
2023-04-30T19:05:07.736Z,54.42
2023-04-30T19:07:34.960Z,54.52
2023-04-30T19:10:03.953Z,54.75
2023-04-30T19:12:31.245Z,55.13
2023-04-30T19:14:58.981Z,55.08
2023-04-30T19:17:26.013Z,55.54
2023-04-30T19:19:53.487Z,55.93
2023-04-30T19:22:20.550Z,55.89
2023-04-30T19:24:47.626Z,55.82
2023-04-30T19:27:14.566Z,56.36
2023-04-30T19:29:41.687Z,56.40
2023-04-30T19:32:09.883Z,56.84
2023-04-30T19:34:36.944Z,57.20
2023-04-30T19:37:03.912Z,57.63
2023-04-30T19:39:31.874Z,57.64
2023-04-30T19:41:59.100Z,58.15
2023-04-30T19:44:26.189Z,58.66
2023-04-30T19:46:53.244Z,58.65
2023-04-30T19:49:20.184Z,59.20
2023-04-30T19:51:47.284Z,60.09
2023-04-30T19:54:14.611Z,59.86
2023-04-30T19:56:42.030Z,60.15
2023-04-30T19:59:09.939Z,59.98
2023-04-30T20:01:37.054Z,60.21
2023-04-30T20:04:04.412Z,60.56
2023-04-30T20:06:31.800Z,60.55
2023-04-30T20:08:59.622Z,60.48
2023-04-30T20:11:26.602Z,60.73
2023-04-30T20:13:55.560Z,60.56
2023-04-30T20:16:23.103Z,60.30
2023-04-30T20:18:50.233Z,60.19
2023-04-30T20:21:19.938Z,60.22
2023-04-30T20:23:47.902Z,59.98
2023-04-30T20:26:14.986Z,60.44
2023-04-30T20:28:42.133Z,60.91
2023-04-30T20:31:09.895Z,60.43
2023-04-30T20:33:37.133Z,61.27
2023-04-30T20:36:04.685Z,61.94
2023-04-30T20:38:31.688Z,61.68
2023-04-30T20:40:59.764Z,61.41
2023-04-30T20:43:26.997Z,61.62
2023-04-30T20:45:57.407Z,61.63
2023-04-30T20:48:25.627Z,62.20
2023-04-30T20:50:52.875Z,62.71
2023-04-30T20:53:20.013Z,62.85
2023-04-30T20:55:47.044Z,62.61
2023-04-30T20:58:14.372Z,62.51
2023-04-30T21:00:41.593Z,62.47
2023-04-30T21:03:09.750Z,62.27
2023-04-30T21:05:36.897Z,62.43
2023-04-30T21:08:04.073Z,62.27
2023-04-30T21:10:36.452Z,62.49
2023-04-30T21:13:09.118Z,62.35
2023-04-30T21:15:36.654Z,62.53
2023-04-30T21:18:04.122Z,62.54
2023-04-30T21:20:31.877Z,62.44
2023-04-30T21:22:59.226Z,62.09
2023-04-30T21:25:26.880Z,61.85
2023-04-30T21:27:53.993Z,62.10
2023-04-30T21:30:25.062Z,62.22
2023-04-30T21:32:58.472Z,62.13
2023-04-30T21:35:27.796Z,62.04
2023-04-30T21:37:55.097Z,61.95
2023-04-30T21:40:22.174Z,62.29
2023-04-30T21:42:49.205Z,62.02
2023-04-30T21:45:20.054Z,61.88
2023-04-30T21:47:47.907Z,61.79
2023-04-30T21:50:15.016Z,61.81
2023-04-30T21:52:42.066Z,61.96
2023-04-30T21:55:09.825Z,62.16
2023-04-30T21:57:36.827Z,62.08
2023-04-30T22:00:07.264Z,62.20
2023-04-30T22:02:37.179Z,62.21
2023-04-30T22:05:04.473Z,62.20
2023-04-30T22:07:31.475Z,61.99
2023-04-30T22:09:58.754Z,62.49
2023-04-30T22:12:26.205Z,62.54
2023-04-30T22:14:54.908Z,62.72
2023-04-30T22:17:22.178Z,63.02
2023-04-30T22:19:49.159Z,63.01
2023-04-30T22:22:16.653Z,63.72
2023-04-30T22:24:43.700Z,63.97
2023-04-30T22:27:13.582Z,63.86
2023-04-30T22:29:41.369Z,64.11
2023-04-30T22:32:09.544Z,63.97
2023-04-30T22:34:39.399Z,64.28
2023-04-30T22:37:07.228Z,64.08
2023-04-30T22:39:34.170Z,63.63
2023-04-30T22:42:01.158Z,63.34
2023-04-30T22:44:29.860Z,64.12
2023-04-30T22:46:58.250Z,64.04
2023-04-30T22:49:31.242Z,64.20
2023-04-30T22:51:59.269Z,64.16
2023-04-30T22:54:26.409Z,64.40
2023-04-30T22:56:53.443Z,64.71
2023-04-30T22:59:20.519Z,64.41
2023-04-30T23:01:47.630Z,64.30
2023-04-30T23:04:14.674Z,64.27
2023-04-30T23:06:43.052Z,64.52
2023-04-30T23:09:10.411Z,64.66
2023-04-30T23:11:37.388Z,64.62
2023-04-30T23:14:04.844Z,64.51
2023-04-30T23:16:32.062Z,65.04
2023-04-30T23:18:59.299Z,65.41
2023-04-30T23:21:26.950Z,66.04
2023-04-30T23:23:54.082Z,65.85
2023-04-30T23:26:21.468Z,66.08
2023-04-30T23:28:51.780Z,65.67
2023-04-30T23:31:18.799Z,65.52
2023-04-30T23:33:49.849Z,66.20
2023-04-30T23:36:16.891Z,65.46
2023-04-30T23:38:44.106Z,65.53
2023-04-30T23:41:11.117Z,65.01
2023-04-30T23:43:38.306Z,66.02
2023-04-30T23:46:05.758Z,66.19
2023-04-30T23:48:32.795Z,65.89
2023-04-30T23:51:05.075Z,65.77
2023-04-30T23:53:32.350Z,65.73
2023-04-30T23:56:02.439Z,65.44
2023-04-30T23:58:32.532Z,64.33
